CheckWX is a tool to help pilots better visualize weather data.  It is not intended as a substitute for an official pre-flight weather briefing.

21:14:46 UTC

EDHI METAR
Hamburg-Finkenwerder Airport
Hamburg, Germany
Current

25 mins ago

EDHI 232050Z AUTO 17004KT 9999 // NCD 15/06 Q1014
Observed
May-23 @ 20:50 UTC
Wind
  • 170° at 4 KTS
Visibility
10,000+ meters
Flight Rules
VFR
Cloud Levels
  • Clear skies
Temperature
15°C / 59°F
Dewpoint
C / 43°F
Humidity
55%
Altimeter
29.94" Hg
Pressure
1013.92 hPa
Previous

55 mins ago

EDHI 232020Z AUTO 17004KT 140V200 9999 // FEW240/// 15/06 Q1015
Observed
May-23 @ 20:20 UTC
Wind
  • 170° at 4 KTS
Visibility
10,000+ meters
Flight Rules
VFR
Cloud Levels
  • Few at 24,000' AGL
Temperature
15°C / 59°F
Dewpoint
C / 43°F
Humidity
55%
Altimeter
29.97" Hg
Pressure
1014.92 hPa
Previous

2 hours ago

EDHI 231920Z AUTO 17003KT 140V220 9999 // NCD 17/06 Q1015
Observed
May-23 @ 19:20 UTC
Wind
  • 170° at 3 KTS
Visibility
10,000+ meters
Flight Rules
VFR
Cloud Levels
  • Clear skies
Temperature
17°C / 63°F
Dewpoint
C / 43°F
Humidity
49%
Altimeter
29.97" Hg
Pressure
1014.92 hPa